createdAt,value
2022-09-22T00:01:39.077Z,100.00
2022-09-22T00:04:13.557Z,100.00
2022-09-22T00:06:48.275Z,100.00
2022-09-22T00:09:18.875Z,100.00
2022-09-22T00:11:49.555Z,100.00
2022-09-22T00:14:20.686Z,100.00
2022-09-22T00:16:51.506Z,100.00
2022-09-22T00:19:23.736Z,100.00
2022-09-22T00:21:58.168Z,100.00
2022-09-22T00:24:31.937Z,100.00
2022-09-22T00:27:01.272Z,100.00
2022-09-22T00:29:33.506Z,100.00
2022-09-22T00:32:07.189Z,100.00
2022-09-22T00:34:37.958Z,100.00
2022-09-22T00:37:09.510Z,100.00
2022-09-22T00:39:38.275Z,100.00
2022-09-22T00:42:07.166Z,100.00
2022-09-22T00:44:40.207Z,100.00
2022-09-22T00:47:30.948Z,100.00
2022-09-22T00:50:07.397Z,100.00
2022-09-22T00:52:40.415Z,100.00
2022-09-22T00:55:14.624Z,100.00
2022-09-22T00:57:46.328Z,100.00
2022-09-22T01:00:16.450Z,100.00
2022-09-22T01:02:50.469Z,100.00
2022-09-22T01:05:23.990Z,100.00
2022-09-22T01:07:53.118Z,100.00
2022-09-22T01:10:21.465Z,100.00
2022-09-22T01:12:58.939Z,100.00
2022-09-22T01:15:36.105Z,100.00
2022-09-22T01:18:16.191Z,100.00
2022-09-22T01:21:15.898Z,100.00
2022-09-22T01:24:14.055Z,100.00
2022-09-22T01:27:04.978Z,100.00
2022-09-22T01:30:06.750Z,100.00
2022-09-22T01:32:47.000Z,100.00
2022-09-22T01:35:26.011Z,100.00
2022-09-22T01:38:04.815Z,100.00
2022-09-22T01:40:39.529Z,100.00
2022-09-22T01:43:17.202Z,100.00
2022-09-22T01:45:49.674Z,100.00
2022-09-22T01:48:24.955Z,100.00
2022-09-22T01:50:59.800Z,100.00
2022-09-22T01:53:38.016Z,100.00
2022-09-22T01:56:11.255Z,100.00
2022-09-22T01:58:44.974Z,100.00
2022-09-22T02:01:17.079Z,100.00
2022-09-22T02:03:59.275Z,100.00
2022-09-22T02:06:39.536Z,100.00
2022-09-22T02:09:13.099Z,100.00
2022-09-22T02:11:48.169Z,100.00
2022-09-22T02:14:17.783Z,100.00
2022-09-22T02:16:46.327Z,100.00
2022-09-22T02:19:20.969Z,100.00
2022-09-22T02:21:50.675Z,100.00
2022-09-22T02:24:30.158Z,100.00
2022-09-22T02:27:00.265Z,100.00
2022-09-22T02:29:34.374Z,100.00
2022-09-22T02:32:06.866Z,100.00
2022-09-22T02:34:36.827Z,100.00
2022-09-22T02:37:13.593Z,100.00
2022-09-22T02:39:49.170Z,100.00
2022-09-22T02:42:29.247Z,100.00
2022-09-22T02:45:06.797Z,100.00
2022-09-22T02:47:41.764Z,100.00
2022-09-22T02:50:14.926Z,100.00
2022-09-22T02:52:43.598Z,100.00
2022-09-22T02:55:15.849Z,100.00
2022-09-22T02:57:44.725Z,100.00
2022-09-22T03:00:14.362Z,100.00
2022-09-22T03:02:42.853Z,100.00
2022-09-22T03:05:13.107Z,100.00
2022-09-22T03:07:42.106Z,100.00
2022-09-22T03:10:12.764Z,100.00
2022-09-22T03:13:02.437Z,100.00
2022-09-22T03:15:31.699Z,100.00
2022-09-22T03:18:00.094Z,100.00
2022-09-22T03:20:30.581Z,100.00
2022-09-22T03:22:59.001Z,100.00
2022-09-22T03:25:27.881Z,100.00
2022-09-22T03:27:57.345Z,100.00
2022-09-22T03:30:28.724Z,100.00
2022-09-22T03:32:58.289Z,100.00
2022-09-22T03:35:26.778Z,100.00
2022-09-22T03:37:56.483Z,100.00
2022-09-22T03:40:25.344Z,100.00
2022-09-22T03:42:54.121Z,100.00
2022-09-22T03:45:22.927Z,100.00
2022-09-22T03:47:51.760Z,100.00
2022-09-22T03:50:20.769Z,100.00
2022-09-22T03:52:51.045Z,100.00
2022-09-22T03:55:21.828Z,100.00
2022-09-22T03:57:51.456Z,100.00
2022-09-22T04:00:20.696Z,100.00
2022-09-22T04:02:49.237Z,100.00
2022-09-22T04:05:17.791Z,100.00
2022-09-22T04:15:23.370Z,100.00
2022-09-22T04:18:38.043Z,100.00
2022-09-22T04:21:59.015Z,100.00
2022-09-22T04:36:25.219Z,100.00
2022-09-22T04:39:35.793Z,100.00
2022-09-22T04:42:16.501Z,100.00
2022-09-22T04:44:46.622Z,100.00
2022-09-22T04:47:16.082Z,100.00
2022-09-22T04:49:47.082Z,100.00
2022-09-22T04:52:16.088Z,100.00
2022-09-22T04:54:45.325Z,100.00
2022-09-22T04:57:17.190Z,100.00
2022-09-22T04:59:49.431Z,100.00
2022-09-22T05:02:20.866Z,100.00
2022-09-22T05:05:04.711Z,100.00
2022-09-22T05:07:33.384Z,100.00
2022-09-22T05:10:02.955Z,100.00
2022-09-22T05:12:31.698Z,100.00
2022-09-22T05:15:00.670Z,100.00
2022-09-22T05:17:29.900Z,100.00
2022-09-22T05:19:59.806Z,100.00
2022-09-22T05:22:28.390Z,100.00
2022-09-22T05:24:56.849Z,100.00
2022-09-22T05:27:26.703Z,100.00
2022-09-22T05:29:55.467Z,100.00
2022-09-22T05:32:23.652Z,100.00
2022-09-22T05:34:53.417Z,100.00
2022-09-22T05:37:25.662Z,100.00
2022-09-22T05:39:54.303Z,100.00
2022-09-22T05:42:38.341Z,100.00
2022-09-22T05:45:07.954Z,100.00
2022-09-22T05:47:39.134Z,100.00
2022-09-22T05:50:10.308Z,100.00
2022-09-22T05:52:41.829Z,100.00
2022-09-22T05:55:13.146Z,100.00
2022-09-22T05:57:44.211Z,100.00
2022-09-22T06:00:14.480Z,100.00
2022-09-22T06:02:47.423Z,100.00
2022-09-22T06:05:19.465Z,100.00
2022-09-22T06:07:59.960Z,100.00
2022-09-22T06:10:29.866Z,100.00
2022-09-22T06:13:02.033Z,100.00
2022-09-22T06:15:35.905Z,100.00
2022-09-22T06:18:15.158Z,100.00
2022-09-22T06:20:45.244Z,100.00
2022-09-22T06:23:17.889Z,100.00
2022-09-22T06:25:46.441Z,100.00
2022-09-22T06:28:20.176Z,100.00
2022-09-22T06:30:50.225Z,100.00
2022-09-22T06:33:21.886Z,100.00
2022-09-22T06:35:55.324Z,100.00
2022-09-22T06:38:26.971Z,100.00
2022-09-22T06:41:01.452Z,100.00
2022-09-22T06:43:30.442Z,100.00
2022-09-22T06:46:03.129Z,100.00
2022-09-22T06:48:32.308Z,100.00
2022-09-22T06:51:05.219Z,100.00
2022-09-22T06:53:35.409Z,100.00
2022-09-22T06:56:06.118Z,100.00
2022-09-22T06:58:52.410Z,100.00
2022-09-22T07:01:31.478Z,100.00
2022-09-22T07:04:01.246Z,94.30
2022-09-22T07:06:31.572Z,77.14
2022-09-22T07:09:02.292Z,71.61
2022-09-22T07:11:32.777Z,65.37
2022-09-22T07:14:04.624Z,62.28
2022-09-22T07:16:33.277Z,60.06
2022-09-22T07:19:02.131Z,59.42
2022-09-22T07:21:35.337Z,55.30
2022-09-22T07:24:08.486Z,53.64
2022-09-22T07:26:44.158Z,51.18
2022-09-22T07:29:16.782Z,50.32
2022-09-22T07:31:45.696Z,48.61
2022-09-22T07:34:14.213Z,46.13
2022-09-22T07:36:42.507Z,45.92
2022-09-22T07:39:13.864Z,46.35
2022-09-22T07:41:45.109Z,47.24
2022-09-22T07:44:32.925Z,46.29
2022-09-22T07:47:03.150Z,45.55
2022-09-22T07:49:32.852Z,44.93
2022-09-22T07:52:01.222Z,42.50
2022-09-22T07:54:34.268Z,43.75
2022-09-22T07:57:12.277Z,41.97
2022-09-22T07:59:44.140Z,42.46
2022-09-22T08:02:15.173Z,43.41
2022-09-22T08:04:44.033Z,43.59
2022-09-22T08:07:13.201Z,44.24
2022-09-22T08:09:43.345Z,42.77
2022-09-22T08:12:15.460Z,42.57
2022-09-22T08:14:44.099Z,44.50
2022-09-22T08:17:13.236Z,47.44
2022-09-22T08:19:41.804Z,50.14
2022-09-22T08:22:13.660Z,50.82
2022-09-22T08:24:45.219Z,51.95
2022-09-22T08:27:21.874Z,53.60
2022-09-22T08:29:51.041Z,55.96
2022-09-22T08:32:20.298Z,55.61
2022-09-22T08:34:48.953Z,57.21
2022-09-22T08:37:18.357Z,55.88
2022-09-22T08:39:48.951Z,54.82
2022-09-22T08:42:25.944Z,54.05
2022-09-22T08:45:07.250Z,53.64
2022-09-22T08:47:59.893Z,53.50
2022-09-22T08:50:56.232Z,53.85
2022-09-22T08:53:25.365Z,53.59
2022-09-22T08:56:07.628Z,52.96
2022-09-22T08:58:43.195Z,51.91
2022-09-22T09:01:31.015Z,52.39
2022-09-22T09:04:18.078Z,52.89
2022-09-22T09:06:52.975Z,52.25
2022-09-22T09:09:43.791Z,52.16
2022-09-22T09:12:45.357Z,52.00
2022-09-22T09:15:28.911Z,48.82
2022-09-22T09:18:03.881Z,49.26
2022-09-22T09:20:39.184Z,44.98
2022-09-22T09:23:14.549Z,43.38
2022-09-22T09:25:44.567Z,44.29
2022-09-22T09:28:18.880Z,45.14
2022-09-22T09:30:52.437Z,43.67
2022-09-22T09:33:30.333Z,44.02
2022-09-22T09:35:59.976Z,43.32
2022-09-22T09:38:32.427Z,43.36
2022-09-22T09:41:11.009Z,40.92
2022-09-22T09:43:45.226Z,38.79
2022-09-22T09:46:27.761Z,37.21
2022-09-22T09:49:10.796Z,38.57
2022-09-22T09:51:46.117Z,36.25
2022-09-22T09:54:17.889Z,34.37
2022-09-22T09:57:11.479Z,35.41
2022-09-22T10:00:00.586Z,39.85
2022-09-22T10:02:33.153Z,38.99
2022-09-22T10:05:03.368Z,39.35
2022-09-22T10:07:40.925Z,38.98
2022-09-22T10:10:32.987Z,37.64
2022-09-22T10:13:26.061Z,38.39
2022-09-22T10:16:22.032Z,39.18
2022-09-22T10:18:52.080Z,38.83
2022-09-22T10:21:22.043Z,40.56
2022-09-22T10:23:51.773Z,39.95
2022-09-22T10:26:23.523Z,41.07
2022-09-22T10:29:10.719Z,39.73
2022-09-22T10:31:42.440Z,39.19
2022-09-22T10:34:31.464Z,39.76
2022-09-22T10:37:04.105Z,41.25
2022-09-22T10:39:54.568Z,39.08
2022-09-22T10:42:32.004Z,42.75
2022-09-22T10:45:07.876Z,41.49
2022-09-22T10:47:57.608Z,40.74
2022-09-22T10:50:57.580Z,39.54
2022-09-22T10:53:43.006Z,39.40
2022-09-22T10:56:20.363Z,40.14
2022-09-22T10:59:17.394Z,40.26
2022-09-22T11:02:00.762Z,41.11
2022-09-22T11:05:00.762Z,40.96
2022-09-22T11:08:08.218Z,42.23
2022-09-22T11:11:02.999Z,40.57
2022-09-22T11:13:45.727Z,40.84
2022-09-22T11:16:29.333Z,41.47
2022-09-22T11:19:15.733Z,40.19
2022-09-22T11:22:05.576Z,39.21
2022-09-22T11:24:52.586Z,40.44
2022-09-22T11:27:27.687Z,39.82
2022-09-22T11:30:11.585Z,39.97
2022-09-22T11:33:08.457Z,39.37
2022-09-22T11:36:01.632Z,40.04
2022-09-22T11:38:59.872Z,42.62
2022-09-22T11:42:09.421Z,40.80
2022-09-22T11:44:43.997Z,40.99
2022-09-22T11:47:39.610Z,39.62
2022-09-22T11:50:26.138Z,41.02
2022-09-22T11:53:09.930Z,40.75
2022-09-22T11:55:48.290Z,41.58
2022-09-22T11:58:22.864Z,41.04
2022-09-22T12:00:57.846Z,40.29
2022-09-22T12:03:32.387Z,41.57
2022-09-22T12:06:12.285Z,41.69
2022-09-22T12:08:47.653Z,42.36
2022-09-22T12:11:22.699Z,41.72
2022-09-22T12:13:53.689Z,40.93
2022-09-22T12:16:27.645Z,42.13
2022-09-22T12:19:02.700Z,42.82
2022-09-22T12:21:47.057Z,40.29
2022-09-22T12:24:16.097Z,40.24
2022-09-22T12:26:49.211Z,38.99
2022-09-22T12:29:28.160Z,39.90
2022-09-22T12:31:59.158Z,38.82
2022-09-22T12:34:30.625Z,37.44
2022-09-22T12:37:09.681Z,40.03
2022-09-22T12:39:43.641Z,40.47
2022-09-22T12:42:22.745Z,40.02
2022-09-22T12:44:54.892Z,38.89
2022-09-22T12:47:30.199Z,39.88
2022-09-22T12:50:00.350Z,38.24
2022-09-22T12:53:02.968Z,39.46
2022-09-22T12:55:38.758Z,40.51
2022-09-22T12:58:44.332Z,38.94
2022-09-22T13:01:33.756Z,40.08
2022-09-22T13:04:23.850Z,40.59
2022-09-22T13:06:59.554Z,39.03
2022-09-22T13:09:31.942Z,39.67
2022-09-22T13:12:29.780Z,38.39
2022-09-22T13:15:02.714Z,37.46
2022-09-22T13:17:37.466Z,38.31
2022-09-22T13:20:16.219Z,38.25
2022-09-22T13:22:45.627Z,37.98
2022-09-22T13:25:23.317Z,37.15
2022-09-22T13:28:05.399Z,36.35
2022-09-22T13:30:35.951Z,38.20
2022-09-22T13:33:04.855Z,37.83
2022-09-22T13:35:37.819Z,36.25
2022-09-22T13:38:07.382Z,37.01
2022-09-22T13:40:36.131Z,36.72
2022-09-22T13:43:10.970Z,35.51
2022-09-22T13:45:41.617Z,35.77
2022-09-22T13:48:16.095Z,36.13
2022-09-22T13:50:54.526Z,36.03
2022-09-22T13:53:23.620Z,36.89
2022-09-22T13:55:53.867Z,36.73
2022-09-22T13:58:27.335Z,35.01
2022-09-22T14:01:14.155Z,34.93
2022-09-22T14:03:46.601Z,35.61
2022-09-22T14:06:18.736Z,35.55
2022-09-22T14:08:49.540Z,36.38
2022-09-22T14:11:20.291Z,32.69
2022-09-22T14:14:00.267Z,33.85
2022-09-22T14:16:35.989Z,32.18
2022-09-22T14:19:09.989Z,32.43
2022-09-22T14:21:46.650Z,33.37
2022-09-22T14:24:17.079Z,33.44
2022-09-22T14:26:48.240Z,35.66
2022-09-22T14:29:21.688Z,34.46
2022-09-22T14:31:55.404Z,34.42
2022-09-22T14:34:37.074Z,33.53
2022-09-22T14:37:17.899Z,32.83
2022-09-22T14:39:46.896Z,33.00
2022-09-22T14:42:23.034Z,34.21
2022-09-22T14:44:52.795Z,34.48
2022-09-22T14:47:30.219Z,32.74
2022-09-22T14:50:20.309Z,33.90
2022-09-22T14:53:06.978Z,32.98
2022-09-22T14:55:39.511Z,32.78
2022-09-22T14:58:15.874Z,32.93
2022-09-22T15:01:13.558Z,33.54
2022-09-22T15:03:56.005Z,32.26
2022-09-22T15:06:25.291Z,32.36
2022-09-22T15:08:55.078Z,32.21
2022-09-22T15:11:48.914Z,32.96
2022-09-22T15:14:40.933Z,33.97
2022-09-22T15:17:55.212Z,34.38
2022-09-22T15:20:29.258Z,32.65
2022-09-22T15:22:58.799Z,33.28
2022-09-22T15:25:27.368Z,33.68
2022-09-22T15:27:55.803Z,33.78
2022-09-22T15:30:25.590Z,33.89
2022-09-22T15:32:53.888Z,33.78
2022-09-22T15:35:27.540Z,34.88
2022-09-22T15:37:56.391Z,34.85
2022-09-22T15:40:25.371Z,35.96
2022-09-22T15:43:12.101Z,34.59
2022-09-22T15:45:48.702Z,33.66
2022-09-22T15:48:24.949Z,33.50
2022-09-22T15:50:56.093Z,34.62
2022-09-22T15:53:25.394Z,35.47
2022-09-22T15:55:55.695Z,34.81
2022-09-22T15:58:24.596Z,35.26
2022-09-22T16:00:54.087Z,35.02
2022-09-22T16:03:24.435Z,34.88
2022-09-22T16:05:57.400Z,34.45
2022-09-22T16:08:33.558Z,35.81
2022-09-22T16:11:05.905Z,37.76
2022-09-22T16:13:34.914Z,37.46
2022-09-22T16:16:04.547Z,37.13
2022-09-22T16:18:35.933Z,37.62
2022-09-22T16:21:23.578Z,38.24
2022-09-22T16:23:53.728Z,40.04
2022-09-22T16:26:22.763Z,42.96
2022-09-22T16:28:54.070Z,43.06
2022-09-22T16:31:23.388Z,42.88
2022-09-22T16:33:54.168Z,43.69
2022-09-22T16:36:25.399Z,45.78
2022-09-22T16:38:56.003Z,48.33
2022-09-22T16:41:26.351Z,51.17
2022-09-22T16:43:56.231Z,54.23
2022-09-22T16:46:28.987Z,56.96
2022-09-22T16:48:59.366Z,59.16
2022-09-22T16:51:29.767Z,60.39
2022-09-22T16:53:58.956Z,62.22
2022-09-22T16:56:29.495Z,63.58
2022-09-22T16:59:01.481Z,65.21
2022-09-22T17:01:32.078Z,67.02
2022-09-22T17:04:00.772Z,68.98
2022-09-22T17:06:32.171Z,71.61
2022-09-22T17:09:02.076Z,74.52
2022-09-22T17:11:35.134Z,76.68
2022-09-22T17:14:12.072Z,78.10
2022-09-22T17:16:48.807Z,80.43
2022-09-22T17:19:19.637Z,82.79
2022-09-22T17:21:51.182Z,84.95
2022-09-22T17:24:20.619Z,85.55
2022-09-22T17:26:52.748Z,86.88
2022-09-22T17:29:23.479Z,88.12
2022-09-22T17:31:56.667Z,89.90
2022-09-22T17:34:25.904Z,93.01
2022-09-22T17:36:56.244Z,96.57
2022-09-22T17:39:25.783Z,98.55
2022-09-22T17:41:58.020Z,99.64
2022-09-22T17:44:28.885Z,100.00
2022-09-22T17:47:14.602Z,100.00
2022-09-22T17:50:00.754Z,100.00
2022-09-22T17:52:48.098Z,100.00
2022-09-22T17:55:26.771Z,100.00
2022-09-22T17:57:56.474Z,100.00
2022-09-22T18:00:26.664Z,100.00
2022-09-22T18:02:55.733Z,100.00
2022-09-22T18:05:27.031Z,100.00
2022-09-22T18:07:58.813Z,100.00
2022-09-22T18:10:34.227Z,100.00
2022-09-22T18:13:04.703Z,100.00
2022-09-22T18:15:36.962Z,100.00
2022-09-22T18:18:11.282Z,100.00
2022-09-22T18:20:39.840Z,100.00
2022-09-22T18:23:12.453Z,100.00
2022-09-22T18:25:41.606Z,100.00
2022-09-22T18:28:10.190Z,100.00
2022-09-22T18:30:40.803Z,100.00
2022-09-22T18:33:09.870Z,100.00
2022-09-22T18:35:38.420Z,100.00
2022-09-22T18:38:07.946Z,100.00
2022-09-22T18:40:38.135Z,100.00
2022-09-22T18:43:10.564Z,100.00
2022-09-22T18:45:39.102Z,100.00
2022-09-22T18:48:08.360Z,100.00
2022-09-22T18:50:40.998Z,100.00
2022-09-22T18:53:10.610Z,100.00
2022-09-22T18:55:41.204Z,100.00
2022-09-22T18:58:10.238Z,100.00
2022-09-22T19:00:38.831Z,100.00
2022-09-22T19:03:07.991Z,100.00
2022-09-22T19:05:36.636Z,100.00
2022-09-22T19:08:05.252Z,100.00
2022-09-22T19:10:33.851Z,100.00
2022-09-22T19:13:04.299Z,100.00
2022-09-22T19:15:33.184Z,100.00
2022-09-22T19:18:02.086Z,100.00
2022-09-22T19:20:31.508Z,100.00
2022-09-22T19:23:00.383Z,100.00
2022-09-22T19:25:29.535Z,100.00
2022-09-22T19:27:58.389Z,100.00
2022-09-22T19:30:31.502Z,100.00
2022-09-22T19:33:00.610Z,100.00
2022-09-22T19:35:30.515Z,100.00
2022-09-22T19:37:58.978Z,100.00
2022-09-22T19:40:27.618Z,100.00
2022-09-22T19:42:56.082Z,100.00
2022-09-22T19:45:27.357Z,100.00
2022-09-22T19:47:58.742Z,100.00
2022-09-22T19:50:27.484Z,100.00
2022-09-22T19:52:55.771Z,100.00
2022-09-22T19:55:24.455Z,100.00
2022-09-22T19:57:54.223Z,100.00
2022-09-22T20:00:26.533Z,100.00
2022-09-22T20:02:59.443Z,100.00
2022-09-22T20:05:29.901Z,100.00
2022-09-22T20:07:58.304Z,100.00
2022-09-22T20:10:26.709Z,100.00
2022-09-22T20:12:55.427Z,100.00
2022-09-22T20:15:24.051Z,100.00
2022-09-22T20:17:52.497Z,100.00
2022-09-22T20:20:25.399Z,100.00
2022-09-22T20:23:00.378Z,100.00
2022-09-22T20:25:31.906Z,100.00
2022-09-22T20:28:00.508Z,100.00
2022-09-22T20:30:29.284Z,100.00
2022-09-22T20:32:57.737Z,100.00
2022-09-22T20:35:28.244Z,100.00
2022-09-22T20:37:58.370Z,100.00
2022-09-22T20:40:28.050Z,100.00
2022-09-22T20:42:56.330Z,100.00
2022-09-22T20:45:25.315Z,100.00
2022-09-22T20:47:53.647Z,100.00
2022-09-22T20:50:22.447Z,100.00
2022-09-22T20:52:52.369Z,100.00
2022-09-22T20:55:22.174Z,100.00
2022-09-22T20:57:50.600Z,100.00
2022-09-22T21:00:19.101Z,100.00
2022-09-22T21:02:47.587Z,100.00
2022-09-22T21:05:16.204Z,100.00
2022-09-22T21:07:44.564Z,100.00
2022-09-22T21:10:31.843Z,100.00
2022-09-22T21:13:00.578Z,100.00
2022-09-22T21:15:30.146Z,100.00
2022-09-22T21:17:58.818Z,100.00
2022-09-22T21:20:27.315Z,100.00
2022-09-22T21:22:55.782Z,100.00
2022-09-22T21:25:26.363Z,100.00
2022-09-22T21:27:55.057Z,100.00
2022-09-22T21:30:23.689Z,100.00
2022-09-22T21:32:52.059Z,100.00
2022-09-22T21:35:20.355Z,100.00
2022-09-22T21:37:48.684Z,100.00
2022-09-22T21:40:17.729Z,100.00
2022-09-22T21:42:47.570Z,100.00
2022-09-22T21:45:15.945Z,100.00
2022-09-22T21:47:44.739Z,100.00
2022-09-22T21:50:13.318Z,100.00
2022-09-22T21:52:44.240Z,100.00
2022-09-22T21:55:13.403Z,100.00
2022-09-22T21:57:41.844Z,100.00
2022-09-22T22:00:16.093Z,100.00
2022-09-22T22:03:02.311Z,100.00
2022-09-22T22:05:31.251Z,100.00
2022-09-22T22:07:59.671Z,100.00
2022-09-22T22:10:28.104Z,100.00
2022-09-22T22:12:56.705Z,100.00
2022-09-22T22:15:26.487Z,100.00
2022-09-22T22:17:55.338Z,100.00
2022-09-22T22:20:23.890Z,100.00
2022-09-22T22:22:52.345Z,100.00
2022-09-22T22:25:21.061Z,100.00
2022-09-22T22:27:49.368Z,100.00
2022-09-22T22:30:18.193Z,100.00
2022-09-22T22:32:48.226Z,100.00
2022-09-22T22:35:18.455Z,100.00
2022-09-22T22:37:47.299Z,100.00
2022-09-22T22:40:16.540Z,100.00
2022-09-22T22:42:47.540Z,100.00
2022-09-22T22:45:16.246Z,100.00
2022-09-22T22:47:51.614Z,100.00
2022-09-22T22:50:20.287Z,100.00
2022-09-22T22:52:49.272Z,100.00
2022-09-22T22:55:17.703Z,100.00
2022-09-22T22:57:46.043Z,100.00
2022-09-22T23:00:15.344Z,100.00
2022-09-22T23:02:43.983Z,100.00
2022-09-22T23:05:16.396Z,100.00
2022-09-22T23:07:45.188Z,100.00
2022-09-22T23:10:13.897Z,100.00
2022-09-22T23:12:45.237Z,100.00
2022-09-22T23:15:14.112Z,100.00
2022-09-22T23:17:42.573Z,100.00
2022-09-22T23:20:13.124Z,100.00
2022-09-22T23:22:44.110Z,100.00
2022-09-22T23:25:14.534Z,100.00
2022-09-22T23:27:48.515Z,100.00
2022-09-22T23:30:19.123Z,100.00
2022-09-22T23:32:47.357Z,100.00
2022-09-22T23:35:15.701Z,100.00
2022-09-22T23:37:45.493Z,100.00
2022-09-22T23:40:17.457Z,100.00
2022-09-22T23:42:45.810Z,100.00
2022-09-22T23:45:15.630Z,100.00
2022-09-22T23:47:44.098Z,100.00
2022-09-22T23:50:12.526Z,100.00
2022-09-22T23:52:41.658Z,100.00
2022-09-22T23:55:12.047Z,100.00
2022-09-22T23:57:40.477Z,100.00
